• Join FlightAware (Why Join?)
  • Login
  • US Flag 
07:17AM EDT


 

Airport Tracker/Info


-or-


 

Live Flight TrackerFlight Track Log ✈ UAL1259 ✈ 17-Apr-2013 ✈ KLAX - KSFO

Flight Track Log - Related Links

Times and Time Zones

All times are in EDT time to prevent confusion due to time zone crossing. See the UAL1259 flight status page for this flight to view local times or setup timezone preferences in your user account.

Time Position Orientation Groundspeed Altitude Reporting Facility
EDT Latitude Longitude Course Direction KTS MPH feet Rate Location/Type
01:53AM 33.9370 -118.4060 260° West 154 177 600  Level FlightAware
01:53AM 33.9320 -118.4350 258° West 200 230 1,700 2,760 Climbing FlightAware
01:54AM 33.9270 -118.4670 259° West 220 253 3,400 3,360 Climbing FlightAware
01:54AM 33.9230 -118.4980 261° West 248 285 4,800 3,480 Climbing FlightAware
01:55AM 33.9190 -118.5400 263° West 274 315 6,600 4,200 Climbing FlightAware
01:55AM 33.9150 -118.5860 264° West 286 329 8,700 4,500 Climbing FlightAware
01:55AM 33.9120 -118.6060 260° West 292 336 9,600 3,900 Climbing FlightAware
01:56AM 33.9040 -118.6610 260° West 292 336 12,300 4,620 Climbing FlightAware
01:57AM 33.8850 -118.7750 259° West 326 375 16,200 4,140 Climbing FlightAware
01:57AM 33.9100 -118.8230 302° West 334 384 17,500 3,000 Climbing FlightAware
01:58AM 33.9580 -118.8720 320° Northwest 343 395 19,700 3,300 Climbing FlightAware
01:59AM 34.0210 -118.9470 315° West 345 397 22,800 3,060 Climbing FlightAware
02:00AM 34.0670 -119.0030 315° West 357 411 24,600 2,460 Climbing FlightAware
02:00AM 34.1110 -119.0570 315° West 366 421 26,100 2,220 Climbing FlightAware
02:01AM 34.1690 -119.1270 315° West 377 434 27,800 1,980 Climbing FlightAware
02:02AM 34.2250 -119.1940 315° West 388 447 29,100 1,680 Climbing FlightAware
02:02AM 34.2750 -119.2540 315° West 398 458 30,200 1,800 Climbing FlightAware
02:03AM 34.3290 -119.3200 315° West 403 464 31,500 2,160 Climbing FlightAware
02:04AM 34.3880 -119.3910 315° West 393 452 33,300 2,220 Climbing FlightAware
02:04AM 34.4400 -119.4540 315° West 388 447 34,700 1,680 Climbing FlightAware
02:05AM 34.5030 -119.5310 315° West 376 433 36,000 660 Climbing FlightAware
02:06AM 34.5780 -119.6220 315° West 385 443 36,000  Level FlightAware
02:07AM 34.6220 -119.6760 315° West 376 433 36,000  Level FlightAware
02:08AM 34.6780 -119.7450 315° West 374 430 36,000  Level FlightAware
02:08AM 34.7330 -119.8120 315° West 369 425 36,000  Level FlightAware
02:09AM 34.7810 -119.8720 314° West 368 423 36,000  Level FlightAware
02:10AM 34.8350 -119.9390 314° West 367 422 36,000  Level FlightAware
02:11AM 34.8830 -119.9980 315° West 369 425 36,000  Level FlightAware
02:11AM 34.9310 -120.0570 315° West 369 425 36,000  Level FlightAware
02:12AM 34.9840 -120.1230 314° West 369 425 36,000  Level FlightAware
02:13AM 35.0310 -120.1820 314° West 372 428 36,000  Level FlightAware
02:13AM 35.0870 -120.2510 315° West 373 429 36,000  Level FlightAware
02:14AM 35.1360 -120.3110 315° West 369 425 36,000  Level FlightAware
02:15AM 35.1750 -120.3600 314° West 371 427 36,000  Level FlightAware
02:15AM 35.2430 -120.4450 314° West 379 436 36,000  Level FlightAware
02:16AM 35.2960 -120.5010 319° Northwest 378 435 36,000  Level FlightAware
02:17AM 35.3560 -120.5590 322° Northwest 379 436 36,000  Level FlightAware
02:18AM 35.4210 -120.6250 320° Northwest 379 436 36,000  Level FlightAware
02:18AM 35.4880 -120.6900 322° Northwest 380 437 36,000  Level FlightAware
02:19AM 35.5420 -120.7430 321° Northwest 380 437 36,000  Level FlightAware
02:20AM 35.6020 -120.8030 321° Northwest 380 437 36,000  Level FlightAware
02:21AM 35.6580 -120.8590 321° Northwest 380 437 36,000  Level FlightAware
02:21AM 35.7180 -120.9190 321° Northwest 379 436 36,000  Level FlightAware
02:22AM 35.7740 -120.9750 321° Northwest 379 436 36,000  Level FlightAware
02:23AM 35.8320 -121.0340 320° Northwest 378 435 36,000 -300 Level FlightAware
02:23AM 35.8870 -121.0880 322° Northwest 381 438 35,600 -840 Descending FlightAware
02:24AM 35.9430 -121.1440 321° Northwest 387 445 34,900 -1,020 Descending FlightAware
02:25AM 36.0060 -121.2080 321° Northwest 387 445 34,200 -960 Descending FlightAware
02:25AM 36.0620 -121.2640 321° Northwest 388 447 33,600 -1,020 Descending FlightAware
02:26AM 36.1180 -121.3220 320° Northwest 392 451 32,900 -1,020 Descending FlightAware
02:27AM 36.1790 -121.3830 321° Northwest 397 457 32,200 -960 Descending FlightAware
02:28AM 36.2330 -121.4380 321° Northwest 399 459 31,600 -1,020 Descending FlightAware
02:28AM 36.3020 -121.5080 321° Northwest 394 453 30,800 -1,080 Descending FlightAware
02:29AM 36.3580 -121.5660 320° Northwest 390 449 30,100 -1,740 Descending FlightAware
02:30AM 36.4310 -121.6400 321° Northwest 375 432 28,100 -2,280 Descending FlightAware
02:31AM 36.4900 -121.7000 321° Northwest 365 420 26,300 -2,580 Descending FlightAware
02:31AM 36.5440 -121.7560 320° Northwest 358 412 24,500 -2,400 Descending FlightAware
02:32AM 36.5870 -121.8010 320° Northwest 350 403 23,300 -2,280 Descending FlightAware
02:33AM 36.6500 -121.8650 321° Northwest 338 389 21,300 -2,340 Descending FlightAware
02:33AM 36.6970 -121.9140 320° Northwest 331 381 19,800 -2,220 Descending FlightAware
02:34AM 36.7460 -121.9600 323° Northwest 322 371 18,400 -1,740 Descending FlightAware
02:35AM 36.8060 -121.9800 345° North 314 361 17,400 -1,500 Descending FlightAware
02:36AM 36.8720 -121.9980 348° North 311 358 16,200 -1,920 Descending FlightAware
02:36AM 36.9280 -122.0120 349° North 304 350 14,700 -2,220 Descending FlightAware
02:37AM 36.9820 -122.0260 348° North 298 343 13,300 -2,100 Descending FlightAware
02:38AM 37.0410 -122.0420 348° North 292 336 11,800 -2,100 Descending FlightAware
02:38AM 37.0940 -122.0560 348° North 293 337 10,400 -1,560 Descending FlightAware
02:39AM 37.1290 -122.0650 348° North 279 321 10,000 -600 Descending FlightAware
02:39AM 37.1690 -122.0960 328° Northwest 259 298 9,700 -300 Descending FlightAware
02:40AM 37.1850 -122.1320 299° West 232 267 9,700  Level FlightAware
02:40AM 37.1980 -122.1610 299° West 227 261 9,700  Level FlightAware
02:41AM 37.2130 -122.1950 299° West 224 258 9,700 -660 Level FlightAware
02:41AM 37.2260 -122.2240 299° West 230 265 9,100 -1,380 Descending FlightAware
02:42AM 37.2340 -122.2410 301° West 231 266 8,800 -1,380 Descending FlightAware
02:42AM 37.2490 -122.2770 298° West 234 269 8,100 -1,200 Descending FlightAware
02:42AM 37.2540 -122.2880 300° West 232 267 8,000 -600 Descending FlightAware
02:43AM 37.2700 -122.3240 299° West 228 262 7,700 -300 Descending FlightAware
02:43AM 37.2870 -122.3640 298° West 209 241 7,700 -300 Level FlightAware
02:44AM 37.2980 -122.3890 299° West 198 228 7,400 -1,020 Descending FlightAware
02:44AM 37.3130 -122.4160 305° West 194 223 6,800 -1,080 Descending FlightAware
02:44AM 37.3220 -122.4190 345° North 181 208 6,600 -1,080 Descending FlightAware
02:45AM 37.3450 -122.4130 12° North 177 204 6,100 -1,020 Descending FlightAware
02:45AM 37.3680 -122.4060 14° North 180 207 5,700 -480 Descending FlightAware
02:46AM 37.3890 -122.3990 15° North 180 207 5,700  Level FlightAware
02:46AM 37.4000 -122.3840 47° Northeast 179 206 5,700  Level FlightAware
02:47AM 37.4010 -122.3210 89° East 187 215 5,700  Level FlightAware
02:48AM 37.4010 -122.2840 90° East 186 214 5,700  Level FlightAware
02:48AM 37.4010 -122.2630 90° East 187 215 5,700  Level FlightAware
02:49AM 37.4000 -122.2220 92° East 188 216 5,700  Level FlightAware
02:49AM 37.4000 -122.2070 90° East 189 217 5,700 -480 Level FlightAware
02:50AM 37.4050 -122.1640 82° East 183 211 5,300 -840 Descending FlightAware
02:50AM 37.4130 -122.1380 69° East 183 211 4,800 -1,200 Descending FlightAware
02:50AM 37.4190 -122.1200 67° East 181 208 4,400 -1,200 Descending FlightAware
02:50AM 37.4250 -122.1130 43° Northeast 178 205 4,200 -960 Descending FlightAware
02:51AM 37.4370 -122.1080 18° North 172 198 4,000 -720 Descending FlightAware
02:51AM 37.4600 -122.1010 14° North 171 197 3,700 -540 Descending FlightAware
02:51AM 37.4630 -122.1010 360° North 170 196 3,700  Level FlightAware
02:52AM 37.4770 -122.1100 333° Northwest 178 205 3,700  Level FlightAware
02:52AM 37.4870 -122.1200 322° Northwest 176 203 3,700  Level FlightAware
02:52AM 37.5040 -122.1380 320° Northwest 163 188 3,700  Level FlightAware
02:53AM 37.5190 -122.1530 322° Northwest 158 182 3,700 -780 Level FlightAware
02:53AM 37.5340 -122.1710 316° Northwest 160 184 3,000 -1,200 Descending FlightAware
02:54AM 37.5430 -122.1900 301° West 160 184 2,600 -960 Descending FlightAware
02:54AM 37.5520 -122.2120 297° West 153 176 2,200 -900 Descending FlightAware
02:55AM 37.5650 -122.2410 299° West 152 175 1,700 -480 Descending FlightAware
02:55AM 37.5750 -122.2690 294° West 151 174 1,600 -180 Descending FlightAware